Time;durP1;ratioP1;P1;durP2;ratioP2;P2;SDS_P1;SDS_P2;PMS_P1;PMS_P2;Temp;Humidity;BMP_temperature;BMP_pressure;BME280_temperature;BME280_humidity;BME280_pressure;Samples;Min_cycle;Max_cycle;Signal;HPM_P1;HPM_P2
2024/02/01 00:02:27;;;;;;;9.90;8.80;;;;;;;5.63;100.00;101833.75;6233295;28;20231;-72
2024/02/01 00:05:49;;;;;;;9.17;8.37;;;;;;;5.62;100.00;101840.06;6242585;28;20248;-71
2024/02/01 00:09:09;;;;;;;8.90;8.00;;;;;;;5.65;100.00;101820.31;6264828;28;20608;-71
2024/02/01 00:12:30;;;;;;;9.77;7.60;;;;;;;5.63;100.00;101806.19;6253350;28;20505;-71
2024/02/01 00:15:54;;;;;;;10.83;8.50;;;;;;;5.67;100.00;101813.09;6232635;28;20351;-72
2024/02/01 00:19:14;;;;;;;9.27;8.37;;;;;;;5.68;100.00;101809.44;6249403;28;20614;-72
2024/02/01 00:22:35;;;;;;;8.90;8.00;;;;;;;5.67;100.00;101813.91;6235385;28;20232;-72
2024/02/01 00:25:56;;;;;;;9.30;8.50;;;;;;;5.68;100.00;101809.44;6248121;28;20586;-72
2024/02/01 00:29:18;;;;;;;9.80;8.60;;;;;;;5.78;100.00;101812.50;6243973;28;20228;-74
2024/02/01 00:32:40;;;;;;;9.33;7.97;;;;;;;5.74;100.00;101809.13;6221426;28;20310;-72
2024/02/01 00:36:01;;;;;;;11.83;8.43;;;;;;;5.72;100.00;101808.34;6248804;28;20244;-72
2024/02/01 00:39:22;;;;;;;13.03;8.53;;;;;;;5.75;100.00;101815.34;6251643;28;20257;-71
2024/02/01 00:42:43;;;;;;;11.10;8.30;;;;;;;5.78;100.00;101820.53;6252151;28;20236;-70
2024/02/01 00:46:04;;;;;;;10.47;9.57;;;;;;;5.78;100.00;101793.78;6247168;28;20267;-71
2024/02/01 00:49:30;;;;;;;11.10;10.03;;;;;;;5.79;100.00;101784.78;6246166;28;20588;-70
2024/02/01 00:52:52;;;;;;;10.90;10.00;;;;;;;5.85;100.00;101787.16;6239417;28;20231;-70
2024/02/01 00:56:14;;;;;;;9.63;8.73;;;;;;;5.87;100.00;101775.44;6240800;28;20641;-71
2024/02/01 00:59:35;;;;;;;9.73;8.80;;;;;;;5.87;100.00;101778.13;6258409;28;20239;-72
2024/02/01 01:02:55;;;;;;;10.97;10.07;;;;;;;5.88;100.00;101776.31;6246706;28;20228;-72
2024/02/01 01:06:18;;;;;;;12.37;11.07;;;;;;;5.90;100.00;101767.25;6247777;28;20260;-72
2024/02/01 01:09:39;;;;;;;11.07;8.23;;;;;;;5.97;100.00;101776.66;6257580;28;20228;-72
2024/02/01 01:13:00;;;;;;;10.80;9.80;;;;;;;5.99;100.00;101781.91;6251900;28;20235;-72
2024/02/01 01:16:21;;;;;;;10.10;8.83;;;;;;;6.00;100.00;101768.47;6244053;28;20566;-72
2024/02/01 01:19:42;;;;;;;8.70;7.20;;;;;;;6.02;100.00;101774.59;6256242;28;20327;-72
2024/02/01 01:23:04;;;;;;;10.03;9.03;;;;;;;6.03;100.00;101776.31;6248407;28;22840;-71
2024/02/01 01:26:26;;;;;;;10.00;9.07;;;;;;;6.01;100.00;101767.50;6240383;28;20246;-72
2024/02/01 01:29:46;;;;;;;9.00;8.20;;;;;;;5.98;100.00;101766.81;6213211;28;20251;-71
2024/02/01 01:33:07;;;;;;;10.73;9.73;;;;;;;5.94;100.00;101776.84;6234179;28;20240;-71
2024/02/01 01:36:28;;;;;;;9.37;8.23;;;;;;;5.96;100.00;101777.63;6246162;28;20593;-70
2024/02/01 01:39:50;;;;;;;11.43;10.33;;;;;;;5.95;100.00;101761.63;6244698;28;20615;-71
2024/02/01 01:43:11;;;;;;;11.67;10.47;;;;;;;5.95;100.00;101767.84;6248362;28;21958;-71
2024/02/01 01:46:33;;;;;;;9.43;8.53;;;;;;;5.94;100.00;101755.44;6242672;28;20247;-71
2024/02/01 01:49:53;;;;;;;10.30;9.43;;;;;;;5.98;100.00;101748.09;6247334;28;20224;-71
2024/02/01 01:53:15;;;;;;;7.83;7.23;;;;;;;5.97;100.00;101738.31;6243976;28;20223;-71
2024/02/01 01:56:38;;;;;;;10.50;9.50;;;;;;;6.03;100.00;101762.94;6248997;28;20227;-70
2024/02/01 01:59:59;;;;;;;9.33;8.53;;;;;;;6.03;100.00;101762.94;6256178;28;22765;-71
2024/02/01 02:03:27;;;;;;;9.50;8.60;;;;;;;6.01;100.00;101770.19;6244360;28;20243;-70
2024/02/01 02:06:48;;;;;;;9.13;8.37;;;;;;;6.03;100.00;101754.06;6244929;28;20667;-71
2024/02/01 02:10:14;;;;;;;8.57;7.87;;;;;;;6.05;100.00;101765.53;6252086;28;20224;-70
2024/02/01 02:13:36;;;;;;;8.30;7.60;;;;;;;6.07;100.00;101758.28;6257671;28;20687;-70
2024/02/01 02:16:57;;;;;;;7.57;6.87;;;;;;;6.10;91.30;101758.09;6239324;28;20251;-70
2024/02/01 02:20:20;;;;;;;7.97;7.30;;;;;;;6.13;80.35;101749.91;6236924;28;20674;-70
2024/02/01 02:23:49;;;;;;;7.93;7.23;;;;;;;6.15;73.46;101762.22;6252297;28;20362;-69
2024/02/01 02:27:10;;;;;;;7.73;7.07;;;;;;;6.16;68.90;101763.97;6249192;28;20231;-70
2024/02/01 02:30:31;;;;;;;7.37;6.67;;;;;;;6.18;65.40;101778.13;6220312;28;20682;-71
2024/02/01 02:33:52;;;;;;;8.53;7.83;;;;;;;6.21;63.05;101761.91;6245986;28;20223;-70
2024/02/01 02:37:13;;;;;;;8.37;7.67;;;;;;;6.22;61.00;101755.59;6250021;28;20318;-70
2024/02/01 02:40:35;;;;;;;7.60;6.90;;;;;;;6.22;60.34;101765.44;6248851;28;20239;-70
2024/02/01 02:43:57;;;;;;;7.87;7.20;;;;;;;6.25;59.12;101781.34;6252540;28;20231;-69
2024/02/01 02:47:18;;;;;;;7.27;6.67;;;;;;;6.24;58.13;101792.97;6230335;28;20578;-70
2024/02/01 02:50:40;;;;;;;7.53;6.87;;;;;;;6.31;57.20;101794.38;6243810;28;20228;-70
2024/02/01 02:54:00;;;;;;;8.33;7.43;;;;;;;6.30;56.84;101806.88;6234599;28;20235;-70
2024/02/01 02:57:23;;;;;;;7.33;6.73;;;;;;;6.35;56.20;101822.69;6231901;28;20225;-70
2024/02/01 03:00:43;;;;;;;6.07;5.60;;;;;;;6.38;57.12;101828.75;6236099;28;20220;-70
2024/02/01 03:04:08;;;;;;;7.50;5.80;;;;;;;6.47;57.00;101826.53;6247668;28;20255;-70
2024/02/01 03:07:28;;;;;;;6.33;5.73;;;;;;;6.49;59.48;101832.66;6243642;28;20236;-69
2024/02/01 03:10:50;;;;;;;4.33;4.03;;;;;;;6.53;61.05;101831.53;6242595;28;20342;-69
2024/02/01 03:14:12;;;;;;;7.97;4.53;;;;;;;6.63;63.28;101838.09;6245728;28;20223;-70
2024/02/01 03:17:34;;;;;;;5.50;5.00;;;;;;;6.64;66.61;101839.78;6238313;28;20227;-71
2024/02/01 03:20:56;;;;;;;7.20;6.20;;;;;;;6.66;70.68;101844.13;6245389;28;20489;-70
2024/02/01 03:24:21;;;;;;;4.87;4.37;;;;;;;6.72;74.16;101857.16;6242528;28;20223;-70
2024/02/01 03:27:43;;;;;;;5.00;4.00;;;;;;;6.72;78.11;101851.81;6231768;28;20727;-70
2024/02/01 03:31:05;;;;;;;9.03;5.37;;;;;;;6.77;83.12;101856.91;6238011;28;20228;-70
2024/02/01 03:34:27;;;;;;;6.47;4.73;;;;;;;6.76;88.08;101856.03;6253032;28;20224;-70
2024/02/01 03:37:49;;;;;;;8.10;5.10;;;;;;;6.72;93.88;101858.97;6246676;28;20231;-70
2024/02/01 03:41:11;;;;;;;5.87;4.77;;;;;;;6.70;94.34;101859.06;6244508;28;20228;-69
2024/02/01 03:44:37;;;;;;;9.57;5.63;;;;;;;6.71;98.99;101876.00;6229143;28;20251;-69
2024/02/01 03:47:59;;;;;;;9.67;4.80;;;;;;;6.65;100.00;101879.03;6240311;28;20228;-68
2024/02/01 03:51:20;;;;;;;12.33;5.13;;;;;;;6.62;100.00;101884.56;6222953;28;20323;-68
2024/02/01 03:54:41;;;;;;;5.43;4.43;;;;;;;6.63;100.00;101891.66;6234142;28;20228;-69
2024/02/01 03:58:02;;;;;;;7.17;4.43;;;;;;;6.64;100.00;101901.41;6226229;28;20236;-69
2024/02/01 04:01:24;;;;;;;7.87;6.47;;;;;;;6.55;100.00;101902.78;6237114;28;20310;-69
2024/02/01 04:04:47;;;;;;;9.10;4.60;;;;;;;6.54;100.00;101910.91;6248261;28;20270;-69
2024/02/01 04:08:08;;;;;;;16.67;6.47;;;;;;;6.53;100.00;101928.78;6246919;28;20315;-69
2024/02/01 04:11:30;;;;;;;10.57;4.37;;;;;;;6.55;100.00;101931.41;6238929;28;20224;-70
2024/02/01 04:14:50;;;;;;;12.47;5.43;;;;;;;6.41;100.00;101924.13;6245623;28;20313;-69
2024/02/01 04:18:12;;;;;;;14.13;5.97;;;;;;;6.37;100.00;101926.13;6242317;28;20216;-69
2024/02/01 04:21:34;;;;;;;17.07;5.97;;;;;;;6.33;100.00;101937.06;6240471;28;20541;-69
2024/02/01 04:24:55;;;;;;;10.13;5.87;;;;;;;6.28;100.00;101933.75;6241148;28;20597;-69
2024/02/01 04:28:18;;;;;;;12.87;5.97;;;;;;;6.19;100.00;101936.94;6246057;28;20559;-69
2024/02/01 04:31:39;;;;;;;15.67;5.63;;;;;;;6.20;100.00;101941.34;6240238;28;20227;-69
2024/02/01 04:35:03;;;;;;;13.07;7.77;;;;;;;6.19;100.00;101943.19;6249093;28;20223;-69
2024/02/01 04:38:26;;;;;;;16.30;5.70;;;;;;;6.18;100.00;101952.16;6251374;28;20227;-69
2024/02/01 04:41:47;;;;;;;8.80;4.83;;;;;;;6.16;100.00;101953.16;6253786;28;20231;-70
2024/02/01 04:45:09;;;;;;;16.13;7.23;;;;;;;6.03;100.00;101957.47;6224141;28;20233;-68
2024/02/01 04:48:30;;;;;;;12.90;6.10;;;;;;;5.98;100.00;101957.69;6253768;28;20252;-69
2024/02/01 04:51:51;;;;;;;9.97;4.93;;;;;;;6.00;100.00;101974.53;6233928;28;20306;-69
2024/02/01 04:55:13;;;;;;;15.23;5.77;;;;;;;6.01;100.00;101986.09;6249015;28;20220;-69
2024/02/01 04:58:34;;;;;;;14.77;5.93;;;;;;;5.92;100.00;101994.59;6256266;28;20223;-69
2024/02/01 05:01:55;;;;;;;11.33;7.93;;;;;;;5.96;100.00;101990.81;6245815;28;20314;-69
2024/02/01 05:05:18;;;;;;;10.57;6.87;;;;;;;5.84;100.00;101994.16;6241981;28;20243;-69
2024/02/01 05:08:38;;;;;;;15.97;6.47;;;;;;;5.83;100.00;101990.56;6255340;28;20220;-69
2024/02/01 05:12:01;;;;;;;13.93;5.37;;;;;;;5.84;100.00;101999.50;6244823;28;20232;-70
2024/02/01 05:15:22;;;;;;;15.87;5.67;;;;;;;5.77;100.00;102001.59;6242951;28;20226;-70
2024/02/01 05:18:43;;;;;;;15.60;5.40;;;;;;;5.77;100.00;102001.59;6255427;28;20223;-70
2024/02/01 05:22:07;;;;;;;16.03;5.97;;;;;;;5.79;100.00;102007.72;6251237;28;20228;-69
2024/02/01 05:25:28;;;;;;;15.33;6.10;;;;;;;5.76;100.00;102015.88;6246161;28;20330;-70
2024/02/01 05:28:52;;;;;;;22.70;9.20;;;;;;;5.71;100.00;102015.28;6248825;28;20219;-70
2024/02/01 05:32:15;;;;;;;9.03;5.70;;;;;;;5.71;100.00;102025.97;6241737;28;20228;-69
2024/02/01 05:35:36;;;;;;;18.97;6.07;;;;;;;5.75;100.00;102030.22;6248486;28;20240;-69
2024/02/01 05:38:57;;;;;;;17.30;5.40;;;;;;;5.74;100.00;102025.78;6248543;28;20567;-69
2024/02/01 05:42:18;;;;;;;9.80;4.97;;;;;;;5.67;100.00;102027.91;6245684;28;20231;-68
2024/02/01 05:45:40;;;;;;;13.17;5.90;;;;;;;5.63;100.00;102038.88;6246602;28;20243;-69
2024/02/01 05:49:01;;;;;;;15.83;4.60;;;;;;;5.60;100.00;102047.03;6253369;28;20224;-69
2024/02/01 05:52:21;;;;;;;12.33;6.17;;;;;;;5.52;100.00;102054.56;6246791;28;20597;-69
2024/02/01 05:55:42;;;;;;;13.03;5.87;;;;;;;5.56;100.00;102056.16;6244538;28;20228;-68
2024/02/01 07:17:06;;;;;;;15.73;6.40;;;;;;;5.36;100.00;102171.22;6312746;28;20636;-71
2024/02/01 07:20:46;;;;;;;19.97;6.60;;;;;;;5.30;100.00;102179.53;6285926;28;20320;-70
2024/02/01 07:24:17;;;;;;;18.13;7.70;;;;;;;5.26;100.00;102172.56;6285548;27;20786;-70
2024/02/01 07:57:55;;;;;;;20.63;6.50;;;;;;;5.46;100.00;102204.63;6275684;28;20309;-71
2024/02/01 08:02:01;;;;;;;17.00;6.20;;;;;;;5.50;100.00;102214.22;6276512;28;20230;-71
2024/02/01 08:09:11;;;;;;;21.97;7.33;;;;;;;5.54;100.00;102213.13;6256128;28;20231;-73
2024/02/01 08:12:33;;;;;;;13.90;7.20;;;;;;;5.67;100.00;102225.84;6271731;28;20231;-72
2024/02/01 08:15:57;;;;;;;15.17;7.23;;;;;;;5.80;100.00;102230.66;6250038;28;20654;-73
2024/02/01 08:19:20;;;;;;;17.30;6.40;;;;;;;5.77;100.00;102237.00;6273734;28;20226;-72
2024/02/01 08:22:43;;;;;;;11.90;6.47;;;;;;;5.79;100.00;102232.47;6277584;28;20652;-69
2024/02/01 08:26:06;;;;;;;21.97;6.67;;;;;;;5.93;100.00;102243.41;6289931;28;20235;-75
2024/02/01 08:29:35;;;;;;;28.50;6.90;;;;;;;5.89;100.00;102244.47;6274478;28;20219;-69
2024/02/01 08:33:02;;;;;;;16.33;7.70;;;;;;;6.14;100.00;102257.56;6268570;28;20226;-70
2024/02/01 08:36:23;;;;;;;21.73;9.83;;;;;;;6.01;100.00;102269.78;6269956;28;20223;-70
2024/02/01 08:39:45;;;;;;;17.97;7.43;;;;;;;6.16;100.00;102269.94;6276633;28;20235;-69
2024/02/01 08:43:10;;;;;;;20.00;7.77;;;;;;;6.23;100.00;102274.06;6266838;28;20228;-69
2024/02/01 08:46:31;;;;;;;16.23;7.23;;;;;;;6.39;100.00;102268.81;6267848;28;20583;-70
2024/02/01 08:49:52;;;;;;;14.77;5.93;;;;;;;6.72;100.00;102298.41;6274941;28;20218;-70
2024/02/01 08:53:14;;;;;;;28.40;7.00;;;;;;;6.81;100.00;102269.34;6266534;28;22645;-69
2024/02/01 08:56:37;;;;;;;19.23;6.17;;;;;;;7.07;100.00;102268.88;6277170;28;20436;-68
2024/02/01 08:59:59;;;;;;;14.77;5.67;;;;;;;8.09;100.00;102286.53;6268553;28;20264;-70
2024/02/01 09:03:29;;;;;;;23.67;7.30;;;;;;;8.11;100.00;102280.22;6260670;28;20230;-67
2024/02/01 09:06:53;;;;;;;11.57;7.23;;;;;;;7.35;100.00;102283.50;6267710;28;20264;-68
2024/02/01 09:10:17;;;;;;;16.43;5.90;;;;;;;8.75;100.00;102294.41;6253023;28;20239;-68
2024/02/01 09:13:38;;;;;;;23.73;6.50;;;;;;;8.02;100.00;102300.38;6242447;28;21330;-72
2024/02/01 09:17:01;;;;;;;15.03;6.80;;;;;;;8.58;100.00;102295.41;6271021;28;20263;-72
2024/02/01 09:20:22;;;;;;;20.50;9.43;;;;;;;10.38;100.00;102284.19;6256800;28;20559;-71
2024/02/01 09:23:43;;;;;;;12.33;5.27;;;;;;;11.30;100.00;102291.38;6278272;28;20227;-71
2024/02/01 09:27:04;;;;;;;17.20;6.17;;;;;;;10.50;100.00;102282.50;6277138;28;20604;-68
2024/02/01 09:30:28;;;;;;;13.77;5.60;;;;;;;12.21;100.00;102291.13;6234749;28;20227;-69
2024/02/01 09:33:50;;;;;;;27.53;6.53;;;;;;;12.23;100.00;102294.59;6267997;28;20214;-69
2024/02/01 09:37:11;;;;;;;17.97;5.67;;;;;;;13.52;100.00;102301.84;6247832;28;20309;-72
2024/02/01 09:40:32;;;;;;;21.80;7.60;;;;;;;12.74;100.00;102285.34;6225592;28;20243;-70
2024/02/01 09:43:53;;;;;;;15.47;6.27;;;;;;;13.51;100.00;102297.44;6256406;28;20230;-70
2024/02/01 09:47:14;;;;;;;10.87;5.10;;;;;;;12.48;100.00;102318.88;6230174;28;20227;-68
2024/02/01 09:50:39;;;;;;;16.77;5.17;;;;;;;10.94;100.00;102321.75;6250982;28;20238;-71
2024/02/01 09:54:00;;;;;;;17.37;5.73;;;;;;;12.26;100.00;102337.66;6271050;28;20228;-69
2024/02/01 09:57:21;;;;;;;16.33;6.80;;;;;;;12.50;100.00;102335.84;6262008;28;20620;-69
2024/02/01 10:00:41;;;;;;;13.73;6.17;;;;;;;13.33;100.00;102324.09;6242101;28;20256;-69
2024/02/01 10:04:10;;;;;;;15.80;6.17;;;;;;;13.75;100.00;102322.59;6272756;28;20232;-68
2024/02/01 10:07:33;;;;;;;12.43;6.17;;;;;;;11.34;100.00;102341.50;6264039;28;20222;-68
2024/02/01 10:10:54;;;;;;;16.60;7.03;;;;;;;14.23;100.00;102332.22;6264857;28;20226;-68
2024/02/01 10:14:15;;;;;;;12.07;4.63;;;;;;;13.66;100.00;102336.03;6300755;28;20852;-69
2024/02/01 10:17:45;;;;;;;15.18;6.80;;;;;;;13.83;100.00;102330.13;6266361;28;20230;-70
2024/02/01 10:21:21;;;;;;;16.42;5.28;;;;;;;15.37;100.00;102348.03;6287284;28;20311;-72
2024/02/01 10:24:46;;;;;;;18.27;7.10;;;;;;;16.03;100.00;102341.31;6279832;28;20223;-69
2024/02/01 10:28:08;;;;;;;17.20;5.45;;;;;;;14.69;100.00;102350.22;6266990;28;20319;-70
2024/02/01 10:31:31;;;;;;;15.05;5.38;;;;;;;15.09;100.00;102345.91;6223842;28;20231;-68
2024/02/01 10:34:53;;;;;;;12.93;5.03;;;;;;;15.58;100.00;102342.63;6262888;28;20254;-68
2024/02/01 10:38:20;;;;;;;17.42;5.55;;;;;;;15.72;100.00;102339.56;6253663;28;20234;-68
2024/02/01 10:41:51;;;;;;;15.90;5.57;;;;;;;15.30;100.00;102344.09;6275267;28;20480;-69
2024/02/01 10:45:15;;;;;;;13.35;6.03;;;;;;;15.82;100.00;102330.47;6271577;28;20227;-69
2024/02/01 10:48:43;;;;;;;14.98;5.85;;;;;;;16.89;100.00;102330.75;6261393;28;20667;-69
2024/02/01 10:52:04;;;;;;;14.93;5.28;;;;;;;14.22;100.00;102326.94;6249459;28;20234;-69
2024/02/01 10:55:26;;;;;;;14.68;5.53;;;;;;;15.21;100.00;102332.16;6252587;28;20458;-69
2024/02/01 10:58:51;;;;;;;15.43;5.38;;;;;;;15.11;100.00;102327.63;6275119;28;20692;-69
2024/02/01 11:02:12;;;;;;;16.55;5.25;;;;;;;16.49;100.00;102319.91;6240600;28;20768;-69
2024/02/01 11:05:37;;;;;;;11.05;4.80;;;;;;;15.32;100.00;102327.66;6261480;28;20701;-68
2024/02/01 11:09:02;;;;;;;11.82;5.40;;;;;;;16.47;96.22;102342.78;6288763;28;20270;-68
2024/02/01 11:12:24;;;;;;;15.77;4.70;;;;;;;17.28;90.97;102317.97;6275256;28;20262;-68
2024/02/01 11:15:53;;;;;;;11.63;5.85;;;;;;;14.62;99.09;102332.72;6278025;28;20222;-68
2024/02/01 11:19:15;;;;;;;10.30;5.10;;;;;;;17.72;86.87;102327.44;6266142;28;20235;-68
2024/02/01 11:22:40;;;;;;;12.18;5.43;;;;;;;16.99;86.50;102330.75;6251933;28;20596;-68
2024/02/01 11:26:01;;;;;;;16.33;6.15;;;;;;;16.44;85.16;102329.44;6277497;28;20234;-68
2024/02/01 11:29:24;;;;;;;9.82;4.60;;;;;;;17.66;83.93;102330.75;6299429;28;20234;-68
2024/02/01 11:32:46;;;;;;;13.13;4.93;;;;;;;17.48;80.23;102336.91;6244111;28;20235;-67
2024/02/01 11:36:07;;;;;;;12.02;3.75;;;;;;;17.48;77.64;102338.78;6256042;28;20231;-69
2024/02/01 11:39:28;;;;;;;7.32;3.90;;;;;;;16.25;82.09;102353.88;6301139;28;20239;-68
2024/02/01 11:42:50;;;;;;;10.23;4.50;;;;;;;17.25;81.17;102346.38;6283923;28;20328;-69
2024/02/01 11:46:13;;;;;;;10.50;3.80;;;;;;;16.25;81.67;102370.22;6256591;28;20322;-68
2024/02/01 11:49:36;;;;;;;7.93;4.68;;;;;;;13.11;97.95;102371.91;6265199;28;21831;-69
2024/02/01 11:53:00;;;;;;;13.48;4.78;;;;;;;11.02;100.00;102364.41;6267716;28;20231;-68
2024/02/01 11:56:22;;;;;;;8.00;3.57;;;;;;;10.71;100.00;102392.53;6269101;28;20227;-69
2024/02/01 11:59:43;;;;;;;15.73;5.63;;;;;;;10.75;100.00;102377.00;6288970;28;20223;-68
2024/02/01 12:03:04;;;;;;;9.70;4.80;;;;;;;10.81;100.00;102387.41;6263129;28;20239;-68
2024/02/01 12:06:27;;;;;;;10.80;5.40;;;;;;;10.20;100.00;102377.03;6259410;28;20227;-68
2024/02/01 12:09:49;;;;;;;12.17;4.63;;;;;;;10.14;100.00;102402.50;6277781;28;20223;-69
2024/02/01 12:13:13;;;;;;;13.17;4.63;;;;;;;9.89;100.00;102391.50;6270597;28;20231;-69
2024/02/01 12:16:35;;;;;;;12.47;4.87;;;;;;;10.06;100.00;102404.78;6238805;28;20263;-67
2024/02/01 12:19:57;;;;;;;9.63;4.50;;;;;;;10.94;100.00;102408.09;6265338;28;20257;-69
2024/02/01 12:23:19;;;;;;;13.20;5.40;;;;;;;11.35;100.00;102401.78;6270994;28;20326;-68
2024/02/01 12:26:40;;;;;;;8.37;3.50;;;;;;;12.10;100.00;102401.03;6295357;28;20290;-70
2024/02/01 12:30:01;;;;;;;10.53;4.20;;;;;;;13.62;100.00;102397.72;6292465;28;20243;-70
2024/02/01 12:33:25;;;;;;;15.13;4.43;;;;;;;12.73;100.00;102396.38;6255214;28;20227;-70
2024/02/01 12:36:48;;;;;;;12.63;4.83;;;;;;;12.14;100.00;102395.28;6283698;28;20246;-70
2024/02/01 12:40:12;;;;;;;7.93;3.80;;;;;;;11.43;100.00;102391.31;6252579;28;20314;-70
2024/02/01 12:43:33;;;;;;;14.43;5.13;;;;;;;11.02;100.00;102394.06;6297720;28;20316;-71
2024/02/01 12:46:54;;;;;;;18.67;5.33;;;;;;;10.71;100.00;102422.22;6269906;28;20227;-72
2024/02/01 12:50:16;;;;;;;10.07;4.53;;;;;;;10.02;100.00;102414.03;6289307;28;20226;-69
2024/02/01 12:53:38;;;;;;;14.10;5.00;;;;;;;9.64;100.00;102435.22;6274198;28;20798;-69
2024/02/01 12:57:00;;;;;;;9.63;4.47;;;;;;;9.56;100.00;102436.63;6267387;28;20254;-71
2024/02/01 13:00:22;;;;;;;15.87;5.63;;;;;;;9.77;100.00;102418.31;6265734;28;20251;-73
2024/02/01 13:03:45;;;;;;;11.37;4.97;;;;;;;9.94;100.00;102434.31;6268985;28;20778;-70
2024/02/01 13:07:11;;;;;;;12.80;4.77;;;;;;;9.87;100.00;102425.72;6264990;28;20243;-70
2024/02/01 13:10:38;;;;;;;12.33;4.37;;;;;;;9.64;100.00;102445.97;6257861;28;20244;-71
2024/02/01 13:14:00;;;;;;;11.27;4.40;;;;;;;9.65;100.00;102438.78;6280618;28;20219;-70
2024/02/01 13:17:21;;;;;;;14.83;4.27;;;;;;;9.68;100.00;102451.19;6249695;28;20764;-69
2024/02/01 13:20:42;;;;;;;11.77;4.37;;;;;;;9.64;100.00;102459.44;6246680;28;20231;-69
2024/02/01 13:24:03;;;;;;;13.80;5.93;;;;;;;9.34;100.00;102453.19;6276388;28;20228;-70
2024/02/01 13:27:24;;;;;;;14.43;4.90;;;;;;;9.81;100.00;102446.78;6273246;28;20604;-68
2024/02/01 13:30:46;;;;;;;17.83;6.60;;;;;;;9.70;100.00;102457.34;6255159;28;20618;-69
2024/02/01 13:34:07;;;;;;;10.30;4.23;;;;;;;10.10;100.00;102452.16;6294568;28;20230;-70
2024/02/01 13:37:28;;;;;;;15.03;5.17;;;;;;;10.13;100.00;102453.81;6257027;28;20232;-71
2024/02/01 13:40:49;;;;;;;18.03;5.20;;;;;;;10.09;100.00;102449.53;6257261;28;20240;-73
2024/02/01 13:44:10;;;;;;;13.00;5.20;;;;;;;9.92;100.00;102445.19;6284537;28;20262;-73
2024/02/01 13:47:32;;;;;;;11.90;4.37;;;;;;;10.51;100.00;102440.63;6245456;28;20243;-72
2024/02/01 13:50:54;;;;;;;12.27;4.67;;;;;;;10.61;100.00;102456.13;6254079;28;20309;-72
2024/02/01 13:54:16;;;;;;;19.93;5.57;;;;;;;10.37;100.00;102453.16;6267967;28;20586;-68
2024/02/01 13:57:37;;;;;;;13.57;6.03;;;;;;;10.10;100.00;102451.25;6278576;28;20578;-69
2024/02/01 14:00:57;;;;;;;11.80;5.10;;;;;;;11.04;100.00;102460.47;6253862;28;20522;-69
2024/02/01 14:04:20;;;;;;;18.40;5.30;;;;;;;10.53;100.00;102449.50;6265719;28;20545;-72
2024/02/01 14:07:41;;;;;;;21.53;6.33;;;;;;;11.28;100.00;102463.41;6269708;28;20492;-71
2024/02/01 14:11:04;;;;;;;12.80;4.57;;;;;;;10.86;100.00;102464.38;6277717;28;20226;-69
2024/02/01 14:14:24;;;;;;;18.77;5.27;;;;;;;10.14;100.00;102458.22;6295451;28;20226;-68
2024/02/01 14:17:45;;;;;;;14.50;4.50;;;;;;;9.79;100.00;102456.78;6248556;28;20284;-70
2024/02/01 14:21:08;;;;;;;7.17;3.77;;;;;;;10.10;100.00;102468.34;6264497;28;20262;-70
2024/02/01 14:24:29;;;;;;;9.90;4.57;;;;;;;9.56;100.00;102482.38;6260533;28;20250;-71
2024/02/01 14:27:50;;;;;;;9.13;4.83;;;;;;;9.48;100.00;102461.31;6268146;28;20309;-71
2024/02/01 14:31:11;;;;;;;10.97;3.70;;;;;;;9.43;100.00;102475.97;6250409;28;20232;-69
2024/02/01 14:34:32;;;;;;;11.57;5.03;;;;;;;9.26;100.00;102492.25;6287341;28;20591;-70
2024/02/01 14:37:55;;;;;;;9.93;3.90;;;;;;;9.03;100.00;102492.69;6284782;28;20231;-69
2024/02/01 14:41:16;;;;;;;7.30;3.30;;;;;;;8.97;100.00;102493.91;6283291;28;20222;-70
2024/02/01 14:44:37;;;;;;;12.03;4.47;;;;;;;8.81;100.00;102493.03;6309836;28;20225;-71
2024/02/01 14:47:57;;;;;;;15.53;4.67;;;;;;;9.06;100.00;102501.47;6256047;28;20318;-70
2024/02/01 14:51:18;;;;;;;15.77;5.07;;;;;;;9.11;100.00;102507.47;6283806;28;20234;-72
2024/02/01 14:54:41;;;;;;;10.03;3.60;;;;;;;9.17;100.00;102503.53;6286196;28;20258;-71
2024/02/01 14:58:03;;;;;;;19.33;5.37;;;;;;;9.10;100.00;102508.41;6276352;28;20235;-70
2024/02/01 15:01:24;;;;;;;13.60;3.93;;;;;;;8.92;100.00;102506.75;6276570;28;20238;-71
2024/02/01 15:04:45;;;;;;;18.37;6.23;;;;;;;8.91;100.00;102523.81;6261485;28;20314;-73
2024/02/01 15:08:10;;;;;;;18.50;6.03;;;;;;;8.86;100.00;102523.22;6256476;28;20255;-70
2024/02/01 15:11:33;;;;;;;19.80;6.93;;;;;;;8.68;100.00;102527.78;6286919;28;20230;-72
2024/02/01 15:14:54;;;;;;;17.67;5.27;;;;;;;8.64;100.00;102536.97;6301606;28;20231;-71
2024/02/01 15:18:15;;;;;;;12.67;5.27;;;;;;;8.63;100.00;102529.88;6268305;28;20238;-70
2024/02/01 15:21:36;;;;;;;9.17;4.77;;;;;;;8.52;100.00;102534.06;6270831;28;20238;-72
2024/02/01 15:24:57;;;;;;;15.93;6.10;;;;;;;8.48;100.00;102538.75;6266654;28;20227;-73
2024/02/01 15:28:19;;;;;;;13.40;4.83;;;;;;;8.37;100.00;102542.94;6268906;28;20239;-73
2024/02/01 15:31:40;;;;;;;15.83;5.07;;;;;;;8.45;100.00;102538.06;6267150;28;20233;-73
2024/02/01 15:35:01;;;;;;;14.00;5.13;;;;;;;8.39;100.00;102554.47;6262018;28;20239;-72
2024/02/01 15:38:23;;;;;;;13.37;6.27;;;;;;;8.25;100.00;102559.69;6302401;28;20238;-73
2024/02/01 15:41:44;;;;;;;18.63;7.10;;;;;;;8.22;100.00;102560.69;6286131;28;20488;-73
2024/02/01 15:45:08;;;;;;;12.03;5.27;;;;;;;8.24;100.00;102568.72;6244637;28;20427;-71
2024/02/01 15:48:30;;;;;;;18.20;6.27;;;;;;;8.11;100.00;102560.41;6265249;28;20223;-72
2024/02/01 15:51:51;;;;;;;12.30;4.63;;;;;;;8.14;100.00;102564.72;6258858;28;20235;-72
2024/02/01 15:55:12;;;;;;;15.57;5.33;;;;;;;8.08;100.00;102550.69;6269205;28;20272;-73
2024/02/01 15:58:33;;;;;;;11.70;5.60;;;;;;;7.94;100.00;102565.78;6283698;28;20223;-72
2024/02/01 16:01:55;;;;;;;18.97;6.37;;;;;;;7.83;100.00;102558.25;6261572;28;20234;-72
2024/02/01 16:05:16;;;;;;;8.83;5.60;;;;;;;7.86;100.00;102563.47;6281464;28;20263;-71
2024/02/01 16:08:58;;;;;;;15.80;5.07;;;;;;;7.77;100.00;102568.44;6267695;28;20223;-71
2024/02/01 16:12:22;;;;;;;15.43;5.97;;;;;;;7.72;100.00;102570.47;6250374;28;20707;-69
2024/02/01 16:15:43;;;;;;;16.70;5.33;;;;;;;7.71;100.00;102577.66;6234807;28;20809;-71
2024/02/01 16:19:20;;;;;;;14.90;5.90;;;;;;;7.67;100.00;102585.94;6271109;27;20239;-71
2024/02/01 16:22:46;;;;;;;8.73;4.53;;;;;;;7.66;100.00;102576.13;6291932;28;20226;-71
2024/02/01 16:26:10;;;;;;;12.67;5.77;;;;;;;7.75;100.00;102586.44;6261106;28;20240;-71
2024/02/01 16:29:32;;;;;;;8.90;6.13;;;;;;;7.73;100.00;102591.88;6270116;28;21078;-70
2024/02/01 16:32:53;;;;;;;12.10;4.70;;;;;;;7.65;100.00;102587.84;6250120;28;20240;-72
2024/02/01 16:36:56;;;;;;;16.67;5.97;;;;;;;7.55;100.00;102598.13;6257686;28;20231;-71
2024/02/01 16:40:30;;;;;;;13.27;5.07;;;;;;;7.49;100.00;102611.00;6271983;28;20234;-71
2024/02/01 16:43:51;;;;;;;15.90;5.80;;;;;;;7.42;100.00;102601.50;6270602;28;20254;-71
2024/02/01 16:47:18;;;;;;;13.13;4.93;;;;;;;7.40;100.00;102590.84;6286466;28;20227;-71
2024/02/01 16:50:45;;;;;;;15.20;5.30;;;;;;;7.43;100.00;102606.78;6262763;28;20230;-71
2024/02/01 16:54:08;;;;;;;11.43;4.90;;;;;;;7.41;100.00;102610.47;6270440;28;20227;-70
2024/02/01 16:57:29;;;;;;;12.13;5.03;;;;;;;7.41;100.00;102594.38;6268198;28;20566;-71
2024/02/01 17:00:56;;;;;;;12.33;5.23;;;;;;;7.35;100.00;102605.41;6262531;28;20238;-70
2024/02/01 17:04:23;;;;;;;15.50;5.83;;;;;;;7.33;100.00;102607.28;6263194;28;20551;-71
2024/02/01 17:07:44;;;;;;;12.57;5.83;;;;;;;7.42;100.00;102599.69;6259097;28;20667;-71
2024/02/01 17:11:07;;;;;;;19.63;6.33;;;;;;;7.35;100.00;102605.41;6265685;28;20624;-70
2024/02/01 17:14:33;;;;;;;15.67;5.10;;;;;;;7.42;100.00;102609.53;6297089;28;20230;-71
2024/02/01 17:17:54;;;;;;;16.23;5.87;;;;;;;7.37;100.00;102598.16;6262634;28;20239;-71
2024/02/01 17:21:15;;;;;;;20.17;6.30;;;;;;;7.28;100.00;102614.72;6263661;28;20243;-71
2024/02/01 17:24:36;;;;;;;23.07;6.27;;;;;;;7.21;100.00;102606.94;6267769;28;20228;-70
2024/02/01 17:27:58;;;;;;;14.03;6.30;;;;;;;7.12;100.00;102609.19;6257813;28;20920;-71